createdAt,value
2023-04-23T00:03:37.456Z,4.47
2023-04-23T00:08:40.949Z,4.75
2023-04-23T00:13:42.629Z,4.65
2023-04-23T00:18:43.952Z,3.58
2023-04-23T00:23:45.313Z,4.55
2023-04-23T00:28:46.697Z,4.38
2023-04-23T00:33:48.251Z,5.45
2023-04-23T00:38:49.622Z,5.00
2023-04-23T00:43:53.096Z,5.30
2023-04-23T00:48:54.891Z,5.07
2023-04-23T00:53:56.312Z,5.30
2023-04-23T00:58:57.732Z,5.63
2023-04-23T01:03:59.855Z,5.43
2023-04-23T01:09:01.539Z,5.55
2023-04-23T01:14:03.263Z,6.55
2023-04-23T01:19:07.664Z,6.25
2023-04-23T01:24:10.089Z,6.80
2023-04-23T01:29:11.888Z,6.22
2023-04-23T01:34:13.882Z,7.65
2023-04-23T01:39:15.675Z,7.60
2023-04-23T01:44:17.059Z,7.05
2023-04-23T01:49:18.534Z,7.70
2023-04-23T01:54:19.934Z,9.55
2023-04-23T01:59:22.745Z,8.45
2023-04-23T02:04:24.420Z,8.50
2023-04-23T02:09:25.962Z,9.35
2023-04-23T02:14:27.939Z,10.27
2023-04-23T02:19:31.641Z,9.88
2023-04-23T02:24:33.887Z,11.15
2023-04-23T02:29:36.731Z,11.05
2023-04-23T02:34:38.340Z,12.32
2023-04-23T02:39:39.902Z,13.02
2023-04-23T02:44:41.531Z,13.05
2023-04-23T02:49:43.078Z,12.85
2023-04-23T02:54:44.409Z,12.63
2023-04-23T02:59:46.240Z,12.63
2023-04-23T03:04:47.598Z,13.20
2023-04-23T03:09:48.978Z,12.95
2023-04-23T03:14:50.349Z,12.43
2023-04-23T03:19:51.943Z,13.18
2023-04-23T03:24:53.279Z,13.88
2023-04-23T03:29:54.637Z,12.40
2023-04-23T03:34:56.004Z,12.57
2023-04-23T03:39:57.339Z,12.02
2023-04-23T03:44:59.272Z,12.30
2023-04-23T03:50:00.593Z,12.52
2023-04-23T03:55:02.733Z,11.10
2023-04-23T04:00:08.096Z,11.07
2023-04-23T04:05:11.349Z,13.15
2023-04-23T04:10:13.087Z,12.20
2023-04-23T04:15:16.848Z,11.55
2023-04-23T04:20:18.295Z,10.93
2023-04-23T04:25:22.132Z,9.95
2023-04-23T04:30:24.555Z,9.90
2023-04-23T04:35:26.256Z,10.45
2023-04-23T04:40:28.556Z,10.95
2023-04-23T04:45:29.887Z,10.40
2023-04-23T04:50:31.358Z,9.68
2023-04-23T04:55:32.687Z,10.02
2023-04-23T05:00:34.356Z,9.25
2023-04-23T05:05:35.754Z,10.68
2023-04-23T05:10:37.552Z,10.05
2023-04-23T05:15:39.074Z,9.63
2023-04-23T05:20:41.068Z,9.75
2023-04-23T05:25:42.446Z,10.23
2023-04-23T05:30:43.867Z,9.43
2023-04-23T05:35:45.240Z,8.95
2023-04-23T05:40:46.806Z,8.65
2023-04-23T05:45:48.172Z,9.32
2023-04-23T05:50:49.532Z,8.48
2023-04-23T05:55:50.903Z,7.82
2023-04-23T06:00:53.248Z,7.82
2023-04-23T06:05:54.692Z,7.60
2023-04-23T06:10:56.228Z,7.63
2023-04-23T06:15:58.443Z,7.03
2023-04-23T06:21:04.157Z,7.20
2023-04-23T06:26:05.680Z,6.15
2023-04-23T06:31:07.917Z,5.97
2023-04-23T06:36:12.045Z,6.43
2023-04-23T06:41:13.672Z,5.55
2023-04-23T06:46:15.537Z,4.95
2023-04-23T06:51:17.224Z,5.53
2023-04-23T06:56:18.617Z,5.53
2023-04-23T07:01:20.220Z,5.57
2023-04-23T07:06:21.774Z,6.03
2023-04-23T07:11:23.823Z,5.35
2023-04-23T07:16:25.805Z,5.50
2023-04-23T07:21:28.548Z,5.07
2023-04-23T07:26:29.940Z,4.45
2023-04-23T07:31:31.569Z,3.92
2023-04-23T07:36:33.479Z,4.10
2023-04-23T07:41:35.637Z,3.75
2023-04-23T07:46:37.186Z,4.03
2023-04-23T07:51:38.714Z,3.75
2023-04-23T07:56:42.047Z,3.40
2023-04-23T08:01:44.795Z,3.67
2023-04-23T08:06:46.299Z,2.45
2023-04-23T08:11:48.233Z,3.17
2023-04-23T08:16:49.720Z,3.08
2023-04-23T08:21:52.388Z,3.53
2023-04-23T08:26:53.751Z,3.28
2023-04-23T08:31:55.185Z,3.60
2023-04-23T08:36:56.613Z,3.80
2023-04-23T08:42:04.750Z,3.15
2023-04-23T08:47:08.135Z,3.38
2023-04-23T08:52:19.725Z,3.40
2023-04-23T08:57:22.074Z,3.50
2023-04-23T09:02:24.284Z,4.75
2023-04-23T09:07:25.864Z,3.20
2023-04-23T09:12:27.897Z,2.83
2023-04-23T09:17:30.644Z,3.08
2023-04-23T09:22:47.377Z,3.45
2023-04-23T09:27:51.892Z,2.40
2023-04-23T09:32:53.851Z,2.47
2023-04-23T09:37:55.409Z,2.00
2023-04-23T09:42:56.776Z,1.98
2023-04-23T09:47:58.853Z,1.85
2023-04-23T09:53:00.742Z,2.03
2023-04-23T09:58:04.459Z,1.20
2023-04-23T10:03:08.688Z,1.10
2023-04-23T10:08:12.123Z,1.42
2023-04-23T10:13:14.473Z,0.95
2023-04-23T10:18:16.326Z,1.05
2023-04-23T10:23:20.997Z,1.10
2023-04-23T10:28:28.979Z,0.93
2023-04-23T10:33:37.665Z,1.00
2023-04-23T10:38:56.863Z,1.15
2023-04-23T10:43:59.506Z,1.00
2023-04-23T10:49:08.639Z,0.82
2023-04-23T10:54:11.163Z,0.82
2023-04-23T10:59:21.958Z,1.70
2023-04-23T11:04:29.183Z,0.98
2023-04-23T11:09:39.489Z,1.40
2023-04-23T11:14:48.430Z,1.10
2023-04-23T11:20:23.686Z,1.45
2023-04-23T11:25:30.381Z,1.30
2023-04-23T11:30:32.075Z,1.58
2023-04-23T11:35:40.440Z,1.23
2023-04-23T11:40:42.783Z,1.13
2023-04-23T11:45:44.464Z,1.20
2023-04-23T11:50:46.584Z,1.45
2023-04-23T11:55:49.230Z,1.35
2023-04-23T12:00:58.129Z,1.55
2023-04-23T12:05:59.778Z,1.20
2023-04-23T12:11:02.580Z,1.98
2023-04-23T12:16:05.182Z,0.90
2023-04-23T12:21:08.260Z,0.90
2023-04-23T12:26:15.104Z,0.55
2023-04-23T12:31:24.492Z,0.80
2023-04-23T12:36:29.471Z,0.60
2023-04-23T12:41:32.318Z,0.50
2023-04-23T12:46:34.916Z,0.82
2023-04-23T12:51:36.361Z,0.80
2023-04-23T12:56:37.730Z,1.00
2023-04-23T13:01:39.284Z,0.80
2023-04-23T13:06:41.527Z,0.85
2023-04-23T13:11:42.901Z,0.90
2023-04-23T13:16:44.543Z,0.60
2023-04-23T13:21:46.020Z,0.70
2023-04-23T13:26:47.388Z,0.63
2023-04-23T13:31:48.768Z,1.05
2023-04-23T13:36:50.183Z,0.40
2023-04-23T13:42:06.219Z,0.70
2023-04-23T13:47:10.777Z,0.73
2023-04-23T13:52:12.134Z,0.80
2023-04-23T13:57:13.573Z,0.80
2023-04-23T14:02:14.983Z,0.70
2023-04-23T14:07:16.377Z,0.30
2023-04-23T14:12:18.599Z,0.40
2023-04-23T14:17:19.946Z,0.30
2023-04-23T14:22:21.328Z,0.30
2023-04-23T14:27:22.792Z,0.30
2023-04-23T14:32:24.150Z,0.20
2023-04-23T14:37:25.543Z,0.20
2023-04-23T14:42:27.350Z,0.20
2023-04-23T14:47:28.752Z,0.40
2023-04-23T14:52:31.462Z,0.45
2023-04-23T14:57:32.763Z,0.28
2023-04-23T15:02:34.932Z,0.70
2023-04-23T15:07:37.344Z,0.20
2023-04-23T15:12:47.979Z,0.30
2023-04-23T15:17:49.657Z,0.22
2023-04-23T15:22:52.103Z,0.30
2023-04-23T15:27:57.721Z,0.30
2023-04-23T15:32:59.199Z,0.22
2023-04-23T15:38:01.009Z,0.40
2023-04-23T15:43:03.390Z,0.30
2023-04-23T15:48:05.153Z,1.50
2023-04-23T15:53:06.781Z,0.30
2023-04-23T15:58:08.307Z,0.60
2023-04-23T16:03:09.798Z,0.30
2023-04-23T16:08:11.828Z,0.30
2023-04-23T16:13:13.284Z,0.30
2023-04-23T16:18:14.715Z,0.20
2023-04-23T16:23:16.266Z,0.40
2023-04-23T16:28:17.704Z,0.30
2023-04-23T16:33:19.026Z,0.40
2023-04-23T16:38:20.353Z,0.40
2023-04-23T16:43:21.749Z,0.38
2023-04-23T16:48:23.101Z,0.52
2023-04-23T16:53:24.540Z,1.00
2023-04-23T16:58:25.983Z,1.20
2023-04-23T17:03:27.515Z,0.70
2023-04-23T17:08:29.036Z,0.70
2023-04-23T17:13:30.501Z,0.93
2023-04-23T17:18:31.852Z,0.43
2023-04-23T17:23:33.433Z,0.80
2023-04-23T17:28:34.816Z,0.68
2023-04-23T17:33:36.281Z,0.60
2023-04-23T17:38:38.159Z,0.43
2023-04-23T17:43:39.533Z,0.73
2023-04-23T17:48:41.109Z,0.80
2023-04-23T17:53:42.608Z,0.65
2023-04-23T17:58:44.223Z,0.63
2023-04-23T18:03:45.700Z,0.73
2023-04-23T18:08:47.165Z,0.80
2023-04-23T18:13:53.401Z,1.60
2023-04-23T18:18:54.732Z,1.10
2023-04-23T18:23:56.167Z,1.33
2023-04-23T18:28:57.508Z,1.83
2023-04-23T18:34:02.150Z,1.30
2023-04-23T18:39:04.019Z,2.03
2023-04-23T18:44:05.552Z,1.30
2023-04-23T18:49:29.834Z,1.10
2023-04-23T18:54:31.406Z,1.35
2023-04-23T18:59:35.756Z,1.92
2023-04-23T19:04:37.837Z,0.95
2023-04-23T19:09:39.695Z,0.60
2023-04-23T19:14:41.300Z,0.50
2023-04-23T19:19:42.893Z,0.55
2023-04-23T19:24:44.362Z,0.52
2023-04-23T19:29:46.412Z,0.40
2023-04-23T19:34:48.062Z,0.50
2023-04-23T19:39:50.047Z,0.70
2023-04-23T19:44:51.362Z,0.50
2023-04-23T19:49:52.814Z,0.40
2023-04-23T19:54:54.191Z,0.70
2023-04-23T19:59:55.626Z,0.65
2023-04-23T20:04:56.948Z,0.50
2023-04-23T20:09:58.252Z,0.50
2023-04-23T20:14:59.579Z,0.60
2023-04-23T20:20:02.668Z,1.10
2023-04-23T20:25:05.211Z,0.60
2023-04-23T20:30:10.390Z,1.45
2023-04-23T20:35:11.729Z,1.00
2023-04-23T20:40:14.584Z,0.70
2023-04-23T20:45:16.391Z,1.98
2023-04-23T20:50:17.738Z,0.85
2023-04-23T20:55:19.246Z,0.85
2023-04-23T21:00:22.262Z,1.15
2023-04-23T21:05:23.635Z,1.05
2023-04-23T21:10:25.011Z,0.65
2023-04-23T21:15:27.087Z,0.93
2023-04-23T21:20:28.686Z,0.80
2023-04-23T21:25:33.448Z,1.33
2023-04-23T21:30:55.128Z,0.82
2023-04-23T21:35:56.559Z,0.70
2023-04-23T21:40:57.911Z,0.80
2023-04-23T21:45:59.537Z,0.80
2023-04-23T21:51:00.852Z,0.40
2023-04-23T21:56:02.221Z,0.40
2023-04-23T22:01:03.950Z,0.40
2023-04-23T22:06:06.486Z,0.50
2023-04-23T22:11:08.286Z,1.48
2023-04-23T22:16:24.586Z,0.50
2023-04-23T22:21:29.326Z,1.30
2023-04-23T22:26:30.745Z,0.40
2023-04-23T22:31:32.097Z,0.57
2023-04-23T22:36:34.461Z,0.32
2023-04-23T22:41:38.652Z,0.55
2023-04-23T22:46:40.402Z,0.30
2023-04-23T22:51:41.862Z,0.40
2023-04-23T22:56:43.535Z,0.30
2023-04-23T23:01:44.962Z,0.30
2023-04-23T23:06:46.441Z,0.30
2023-04-23T23:11:47.789Z,0.25
2023-04-23T23:16:49.138Z,0.28
2023-04-23T23:21:50.580Z,0.20
2023-04-23T23:26:51.894Z,0.30
2023-04-23T23:31:53.256Z,0.20
2023-04-23T23:36:54.694Z,0.20
2023-04-23T23:41:57.738Z,0.30
2023-04-23T23:47:01.370Z,0.30
2023-04-23T23:52:03.755Z,0.20
2023-04-23T23:57:05.151Z,0.20
